createdAt,value
2022-12-12T00:01:41.685Z,1.45
2022-12-12T00:06:44.019Z,1.98
2022-12-12T00:11:46.254Z,2.65
2022-12-12T00:16:48.565Z,3.83
2022-12-12T00:21:51.737Z,3.72
2022-12-12T00:26:56.173Z,4.20
2022-12-12T00:31:58.577Z,4.28
2022-12-12T00:37:00.842Z,4.30
2022-12-12T00:42:03.060Z,4.97
2022-12-12T00:47:05.527Z,4.68
2022-12-12T00:52:08.558Z,5.07
2022-12-12T00:57:10.779Z,7.68
2022-12-12T01:02:13.811Z,9.27
2022-12-12T01:07:16.140Z,4.63
2022-12-12T01:12:18.624Z,4.38
2022-12-12T01:17:21.213Z,3.42
2022-12-12T01:22:23.948Z,3.38
2022-12-12T01:27:26.153Z,4.45
2022-12-12T01:32:29.709Z,3.25
2022-12-12T01:37:32.300Z,2.92
2022-12-12T01:42:35.123Z,3.63
2022-12-12T01:47:37.424Z,3.25
2022-12-12T01:52:44.578Z,2.95
2022-12-12T01:57:50.052Z,3.58
2022-12-12T02:02:54.239Z,3.72
2022-12-12T02:07:59.231Z,3.97
2022-12-12T02:13:10.166Z,3.60
2022-12-12T02:18:26.830Z,3.38
2022-12-12T02:23:46.638Z,3.42
2022-12-12T02:29:04.011Z,3.95
2022-12-12T02:34:20.218Z,3.50
2022-12-12T02:39:47.405Z,4.40
2022-12-12T02:44:59.369Z,4.32
2022-12-12T02:50:12.400Z,6.13
2022-12-12T02:55:15.914Z,6.40
2022-12-12T03:00:20.087Z,5.47
2022-12-12T03:06:01.313Z,6.50
2022-12-12T03:16:24.158Z,6.75
2022-12-12T03:21:43.206Z,6.65
2022-12-12T03:27:08.434Z,6.63
2022-12-12T03:32:20.282Z,7.53
2022-12-12T03:37:30.572Z,7.10
2022-12-12T03:42:44.631Z,6.47
2022-12-12T03:48:03.930Z,7.30
2022-12-12T03:53:20.292Z,7.47
2022-12-12T03:58:38.444Z,8.00
2022-12-12T04:03:52.840Z,9.05
2022-12-12T04:09:30.587Z,9.30
2022-12-12T04:14:54.242Z,8.30
2022-12-12T04:20:23.372Z,8.15
2022-12-12T04:26:01.469Z,7.88
2022-12-12T04:31:07.371Z,7.65
2022-12-12T04:36:12.573Z,9.70
2022-12-12T04:41:17.078Z,10.07
2022-12-12T04:46:25.083Z,8.68
2022-12-12T04:51:33.072Z,7.35
2022-12-12T04:56:38.904Z,7.28
2022-12-12T05:01:53.145Z,7.85
2022-12-12T05:07:05.963Z,6.57
2022-12-12T05:12:08.767Z,9.10
2022-12-12T05:17:16.251Z,7.68
2022-12-12T05:22:18.632Z,6.43
2022-12-12T05:27:20.971Z,7.78
2022-12-12T05:32:23.553Z,5.88
2022-12-12T05:37:26.136Z,5.82
2022-12-12T05:42:31.238Z,5.90
2022-12-12T05:47:34.460Z,5.85
2022-12-12T05:52:39.133Z,9.27
2022-12-12T05:57:41.481Z,8.23
2022-12-12T06:02:44.521Z,10.48
2022-12-12T06:07:46.939Z,8.55
2022-12-12T06:12:49.889Z,7.57
2022-12-12T06:17:52.731Z,8.63
2022-12-12T06:22:55.294Z,14.50
2022-12-12T06:27:59.151Z,10.30
2022-12-12T06:33:01.965Z,8.25
2022-12-12T06:38:04.466Z,7.82
2022-12-12T06:43:06.852Z,8.13
2022-12-12T06:48:09.225Z,8.98
2022-12-12T06:53:13.287Z,10.40
2022-12-12T06:58:15.628Z,11.05
2022-12-12T07:03:18.053Z,7.63
2022-12-12T07:08:20.477Z,11.98
2022-12-12T07:13:23.216Z,9.57
2022-12-12T07:18:25.600Z,10.43
2022-12-12T07:23:28.085Z,9.07
2022-12-12T07:28:30.460Z,9.30
2022-12-12T07:33:42.709Z,9.25
2022-12-12T07:38:46.489Z,8.40
2022-12-12T07:43:50.293Z,9.43
2022-12-12T07:48:54.313Z,10.05
2022-12-12T07:53:56.650Z,9.68
2022-12-12T07:58:58.930Z,11.35
2022-12-12T08:04:02.208Z,10.95
2022-12-12T08:09:05.521Z,9.98
2022-12-12T08:14:12.915Z,11.30
2022-12-12T08:19:16.637Z,10.02
2022-12-12T08:24:19.106Z,9.85
2022-12-12T08:29:21.453Z,10.63
2022-12-12T08:34:24.181Z,9.15
2022-12-12T08:39:26.647Z,10.98
2022-12-12T08:44:29.014Z,11.35
2022-12-12T08:49:31.910Z,13.10
2022-12-12T08:54:34.777Z,14.68
2022-12-12T08:59:37.207Z,16.50
2022-12-12T09:04:39.532Z,16.52
2022-12-12T09:09:41.815Z,13.27
2022-12-12T09:14:44.400Z,9.65
2022-12-12T09:19:46.728Z,10.38
2022-12-12T09:24:49.107Z,9.38
2022-12-12T09:29:51.483Z,9.55
2022-12-12T09:34:54.198Z,8.32
2022-12-12T09:39:56.701Z,7.88
2022-12-12T09:45:08.400Z,7.00
2022-12-12T09:50:25.350Z,7.18
2022-12-12T09:55:35.734Z,7.22
2022-12-12T10:00:45.144Z,8.45
2022-12-12T10:06:35.975Z,6.38
2022-12-12T10:11:52.115Z,7.35
2022-12-12T10:16:58.191Z,7.15
2022-12-12T10:22:15.099Z,7.68
2022-12-12T10:27:17.599Z,7.38
2022-12-12T10:32:48.338Z,6.40
2022-12-12T11:13:23.736Z,5.10
2022-12-12T11:18:27.155Z,5.03
2022-12-12T11:23:31.782Z,5.18
2022-12-12T11:28:37.309Z,5.43
2022-12-12T11:33:46.511Z,4.15
2022-12-12T11:38:53.471Z,3.85
2022-12-12T11:44:03.599Z,3.22
2022-12-12T11:49:06.517Z,3.25
2022-12-12T11:54:16.013Z,3.17
2022-12-12T11:59:28.690Z,2.70
2022-12-12T12:05:06.945Z,2.53
2022-12-12T12:10:24.891Z,3.03
2022-12-12T12:15:27.311Z,3.83
2022-12-12T12:20:41.665Z,4.55
2022-12-12T12:25:51.147Z,4.85
2022-12-12T12:31:19.531Z,7.80
2022-12-12T12:36:29.352Z,5.05
2022-12-12T12:51:57.412Z,3.65
2022-12-12T12:57:13.141Z,4.20
2022-12-12T13:02:29.288Z,5.63
2022-12-12T13:07:40.874Z,7.28
2022-12-12T13:13:03.983Z,6.95
2022-12-12T13:18:12.185Z,8.13
2022-12-12T13:23:32.510Z,8.40
2022-12-12T13:28:46.159Z,9.40
2022-12-12T13:33:56.272Z,9.38
2022-12-12T13:39:01.053Z,7.30
2022-12-12T13:44:03.383Z,7.68
2022-12-12T13:49:22.392Z,9.38
2022-12-12T13:54:24.788Z,7.50
2022-12-12T13:59:26.977Z,8.77
2022-12-12T14:04:38.732Z,8.75
2022-12-12T14:09:49.641Z,8.70
2022-12-12T14:14:58.843Z,9.20
2022-12-12T14:20:01.940Z,10.85
2022-12-12T14:25:19.558Z,10.23
2022-12-12T14:30:34.008Z,12.10
2022-12-12T14:36:02.675Z,12.85
2022-12-12T14:41:13.404Z,13.30
2022-12-12T14:46:17.919Z,17.38
2022-12-12T14:51:29.235Z,18.52
2022-12-12T14:56:52.661Z,14.60
2022-12-12T15:02:08.016Z,13.20
2022-12-12T15:07:30.927Z,13.07
2022-12-12T15:12:36.169Z,14.02
2022-12-12T15:17:48.956Z,15.15
2022-12-12T15:22:55.561Z,19.75
2022-12-12T15:27:59.142Z,22.27
2022-12-12T15:33:03.890Z,23.13
2022-12-12T15:38:12.809Z,27.98
2022-12-12T15:43:19.294Z,23.10
2022-12-12T15:48:22.961Z,23.23
2022-12-12T15:53:28.710Z,29.15
2022-12-12T15:58:35.549Z,35.15
2022-12-12T16:03:38.141Z,27.42
2022-12-12T16:08:47.651Z,23.05
2022-12-12T16:13:49.962Z,23.75
2022-12-12T16:18:52.274Z,23.77
2022-12-12T16:23:55.070Z,20.52
2022-12-12T16:28:58.899Z,19.60
2022-12-12T16:34:03.940Z,17.45
2022-12-12T16:39:06.796Z,15.20
2022-12-12T16:44:09.158Z,17.35
2022-12-12T16:49:15.332Z,20.13
2022-12-12T16:54:18.108Z,20.83
2022-12-12T16:59:20.396Z,21.02
2022-12-12T17:04:24.541Z,24.73
2022-12-12T17:09:30.112Z,20.92
2022-12-12T17:14:32.762Z,11.32
2022-12-12T17:19:35.188Z,10.07
2022-12-12T17:24:37.517Z,14.07
2022-12-12T17:29:40.009Z,15.65
2022-12-12T17:34:43.324Z,22.27
2022-12-12T17:39:45.629Z,24.98
2022-12-12T17:44:49.548Z,28.58
2022-12-12T17:49:51.819Z,35.83
2022-12-12T17:55:53.863Z,32.13
2022-12-12T18:00:17.484Z,28.65
2022-12-12T18:05:20.174Z,25.77
2022-12-12T18:10:22.446Z,17.25
2022-12-12T18:15:24.746Z,15.75
2022-12-12T18:20:31.323Z,15.35
2022-12-12T18:25:36.960Z,21.63
2022-12-12T18:30:42.697Z,21.25
2022-12-12T18:35:45.008Z,16.92
2022-12-12T18:40:47.343Z,12.18
2022-12-12T18:45:49.749Z,15.32
2022-12-12T18:50:52.053Z,18.50
2022-12-12T18:55:54.417Z,21.75
2022-12-12T19:01:13.648Z,23.58
2022-12-12T19:06:22.974Z,31.55
2022-12-12T19:11:25.399Z,28.52
2022-12-12T19:16:27.978Z,38.90
2022-12-12T19:21:30.419Z,37.55
2022-12-12T19:26:32.732Z,26.88
2022-12-12T19:31:36.556Z,27.67
2022-12-12T19:36:39.464Z,32.33
2022-12-12T19:41:42.549Z,34.90
2022-12-12T19:46:48.138Z,38.05
2022-12-12T19:51:50.471Z,34.22
2022-12-12T19:56:52.839Z,26.85
2022-12-12T20:01:55.402Z,25.13
2022-12-12T20:06:58.228Z,25.65
2022-12-12T20:12:03.924Z,28.48
2022-12-12T20:17:06.479Z,34.85
2022-12-12T20:22:09.080Z,40.45
2022-12-12T20:27:11.989Z,41.28
2022-12-12T20:32:15.005Z,46.33
2022-12-12T20:37:20.194Z,47.83
2022-12-12T20:42:23.050Z,48.20
2022-12-12T20:47:25.594Z,49.25
2022-12-12T20:52:27.807Z,39.45
2022-12-12T20:57:30.293Z,37.92
2022-12-12T21:02:32.662Z,34.50
2022-12-12T21:07:35.068Z,32.10
2022-12-12T21:12:37.334Z,35.78
2022-12-12T21:17:39.607Z,28.90
2022-12-12T21:22:41.853Z,27.90
2022-12-12T21:27:44.171Z,28.17
2022-12-12T21:32:46.495Z,26.05
2022-12-12T21:37:48.740Z,23.05
2022-12-12T21:42:51.224Z,20.75
2022-12-12T21:47:53.611Z,20.38
2022-12-12T21:53:14.460Z,30.13
2022-12-12T21:58:17.015Z,30.75
2022-12-12T22:03:19.450Z,27.23
2022-12-12T22:08:21.746Z,25.17
2022-12-12T22:13:24.242Z,20.60
2022-12-12T22:18:26.849Z,23.58
2022-12-12T22:23:29.139Z,24.95
2022-12-12T22:28:31.461Z,23.63
2022-12-12T22:33:33.859Z,23.98
2022-12-12T22:38:38.400Z,22.90
2022-12-12T22:43:41.082Z,22.50
2022-12-12T22:48:43.707Z,22.27
2022-12-12T22:53:46.767Z,23.48
2022-12-12T22:58:49.103Z,21.83
2022-12-12T23:03:52.592Z,20.92
2022-12-12T23:08:57.465Z,19.63
2022-12-12T23:14:04.815Z,19.23
2022-12-12T23:19:08.455Z,18.33
2022-12-12T23:24:11.055Z,20.65
2022-12-12T23:29:17.403Z,18.92
2022-12-12T23:34:23.558Z,17.75
2022-12-12T23:39:27.221Z,19.52
2022-12-12T23:44:29.569Z,18.45
2022-12-12T23:49:32.020Z,16.83
2022-12-12T23:54:35.406Z,15.25
2022-12-12T23:59:37.964Z,14.15
